sensor_id;sensor_type;location;lat;lon;timestamp;pressure;altitude;pressure_sealevel;temperature;humidity
38033;BME280;23841;48.524;1.342;2024-01-07T00:01:00;99333.50;;;7.30;60.48
38033;BME280;23841;48.524;1.342;2024-01-07T00:03:25;99333.50;;;7.30;60.33
38033;BME280;23841;48.524;1.342;2024-01-07T00:05:51;99337.94;;;7.27;60.54
38033;BME280;23841;48.524;1.342;2024-01-07T00:08:16;99337.06;;;7.29;60.52
38033;BME280;23841;48.524;1.342;2024-01-07T00:10:42;99330.88;;;7.29;60.45
38033;BME280;23841;48.524;1.342;2024-01-07T00:13:07;99338.78;;;7.29;60.41
38033;BME280;23841;48.524;1.342;2024-01-07T00:15:33;99345.84;;;7.28;60.30
38033;BME280;23841;48.524;1.342;2024-01-07T00:17:58;99341.47;;;7.26;60.38
38033;BME280;23841;48.524;1.342;2024-01-07T00:20:23;99341.47;;;7.24;60.34
38033;BME280;23841;48.524;1.342;2024-01-07T00:22:49;99345.00;;;7.25;60.26
38033;BME280;23841;48.524;1.342;2024-01-07T00:25:14;99343.25;;;7.24;60.34
38033;BME280;23841;48.524;1.342;2024-01-07T00:27:40;99335.34;;;7.24;60.28
38033;BME280;23841;48.524;1.342;2024-01-07T00:30:07;99341.50;;;7.23;60.28
38033;BME280;23841;48.524;1.342;2024-01-07T00:32:32;99346.81;;;7.21;60.39
38033;BME280;23841;48.524;1.342;2024-01-07T00:34:58;99339.75;;;7.22;60.22
38033;BME280;23841;48.524;1.342;2024-01-07T00:37:23;99336.22;;;7.23;60.18
38033;BME280;23841;48.524;1.342;2024-01-07T00:39:48;99346.81;;;7.20;60.25
38033;BME280;23841;48.524;1.342;2024-01-07T00:42:14;99349.44;;;7.18;60.18
38033;BME280;23841;48.524;1.342;2024-01-07T00:44:39;99346.81;;;7.16;60.12
38033;BME280;23841;48.524;1.342;2024-01-07T00:47:05;99351.19;;;7.19;60.30
38033;BME280;23841;48.524;1.342;2024-01-07T00:49:30;99342.44;;;7.15;60.17
38033;BME280;23841;48.524;1.342;2024-01-07T00:51:56;99354.75;;;7.15;60.17
38033;BME280;23841;48.524;1.342;2024-01-07T00:54:21;99357.38;;;7.16;60.16
38033;BME280;23841;48.524;1.342;2024-01-07T00:56:47;99359.16;;;7.16;60.16
38033;BME280;23841;48.524;1.342;2024-01-07T00:59:12;99356.53;;;7.14;60.25
38033;BME280;23841;48.524;1.342;2024-01-07T01:01:37;99361.81;;;7.13;60.25
38033;BME280;23841;48.524;1.342;2024-01-07T01:04:03;99361.81;;;7.13;60.25
38033;BME280;23841;48.524;1.342;2024-01-07T01:06:28;99352.13;;;7.12;60.19
38033;BME280;23841;48.524;1.342;2024-01-07T01:08:54;99364.47;;;7.11;60.44
38033;BME280;23841;48.524;1.342;2024-01-07T01:11:19;99366.22;;;7.11;60.29
38033;BME280;23841;48.524;1.342;2024-01-07T01:13:46;99354.81;;;7.07;60.33
38033;BME280;23841;48.524;1.342;2024-01-07T01:16:11;99361.84;;;7.10;60.25
38033;BME280;23841;48.524;1.342;2024-01-07T01:18:37;99360.94;;;7.09;60.30
38033;BME280;23841;48.524;1.342;2024-01-07T01:21:02;99365.38;;;7.09;60.37
38033;BME280;23841;48.524;1.342;2024-01-07T01:23:28;99370.66;;;7.09;60.29
38033;BME280;23841;48.524;1.342;2024-01-07T01:25:53;99378.59;;;7.09;60.31
38033;BME280;23841;48.524;1.342;2024-01-07T01:28:18;99382.09;;;7.09;60.20
38033;BME280;23841;48.524;1.342;2024-01-07T01:30:45;99382.97;;;7.07;60.28
38033;BME280;23841;48.524;1.342;2024-01-07T01:33:11;99382.13;;;7.06;60.27
38033;BME280;23841;48.524;1.342;2024-01-07T01:35:37;99385.63;;;7.07;60.32
38033;BME280;23841;48.524;1.342;2024-01-07T01:38:02;99387.41;;;7.06;60.36
38033;BME280;23841;48.524;1.342;2024-01-07T01:40:28;99381.25;;;7.06;60.33
38033;BME280;23841;48.524;1.342;2024-01-07T01:42:53;99390.06;;;7.05;60.46
38033;BME280;23841;48.524;1.342;2024-01-07T01:45:19;99382.16;;;7.03;60.38
38033;BME280;23841;48.524;1.342;2024-01-07T01:47:46;99388.28;;;7.04;60.48
38033;BME280;23841;48.524;1.342;2024-01-07T01:50:11;99375.94;;;7.04;60.42
38033;BME280;23841;48.524;1.342;2024-01-07T01:52:37;99387.44;;;7.03;60.49
38033;BME280;23841;48.524;1.342;2024-01-07T01:55:03;99390.06;;;7.03;60.34
38033;BME280;23841;48.524;1.342;2024-01-07T01:57:33;99397.09;;;7.01;60.49
38033;BME280;23841;48.524;1.342;2024-01-07T02:00:02;99390.06;;;7.02;60.52
38033;BME280;23841;48.524;1.342;2024-01-07T02:02:33;99405.91;;;7.00;60.40
38033;BME280;23841;48.524;1.342;2024-01-07T02:05:03;99402.38;;;7.01;60.46
38033;BME280;23841;48.524;1.342;2024-01-07T02:07:29;99405.91;;;7.00;60.31
38033;BME280;23841;48.524;1.342;2024-01-07T02:09:56;99401.53;;;6.99;60.52
38033;BME280;23841;48.524;1.342;2024-01-07T02:12:21;99404.19;;;6.97;60.64
38033;BME280;23841;48.524;1.342;2024-01-07T02:14:47;99410.34;;;6.95;60.63
38033;BME280;23841;48.524;1.342;2024-01-07T02:17:13;99407.72;;;6.96;60.55
38033;BME280;23841;48.524;1.342;2024-01-07T02:19:38;99411.22;;;6.97;60.56
38033;BME280;23841;48.524;1.342;2024-01-07T02:22:04;99412.09;;;6.94;60.65
38033;BME280;23841;48.524;1.342;2024-01-07T02:24:29;99407.75;;;6.92;60.64
38033;BME280;23841;48.524;1.342;2024-01-07T02:26:56;99412.13;;;6.93;60.59
38033;BME280;23841;48.524;1.342;2024-01-07T02:29:21;99412.13;;;6.91;60.58
38033;BME280;23841;48.524;1.342;2024-01-07T02:31:47;99404.19;;;6.91;60.52
38033;BME280;23841;48.524;1.342;2024-01-07T02:34:12;99407.72;;;6.90;60.55
38033;BME280;23841;48.524;1.342;2024-01-07T02:36:38;99417.41;;;6.91;60.38
38033;BME280;23841;48.524;1.342;2024-01-07T02:39:03;99410.38;;;6.92;60.42
38033;BME280;23841;48.524;1.342;2024-01-07T02:41:29;99416.56;;;6.89;60.44
38033;BME280;23841;48.524;1.342;2024-01-07T02:43:54;99410.38;;;6.89;60.28
38033;BME280;23841;48.524;1.342;2024-01-07T02:46:20;99406.00;;;6.83;60.39
38033;BME280;23841;48.524;1.342;2024-01-07T02:48:46;99419.19;;;6.88;60.52
38033;BME280;23841;48.524;1.342;2024-01-07T02:51:11;99416.53;;;6.86;60.41
38033;BME280;23841;48.524;1.342;2024-01-07T02:53:37;99414.78;;;6.87;60.36
38033;BME280;23841;48.524;1.342;2024-01-07T02:56:02;99413.91;;;6.88;60.38
38033;BME280;23841;48.524;1.342;2024-01-07T02:58:28;99417.44;;;6.87;60.43
38033;BME280;23841;48.524;1.342;2024-01-07T03:00:53;99418.31;;;6.86;60.47
38033;BME280;23841;48.524;1.342;2024-01-07T03:03:19;99423.63;;;6.82;60.45
38033;BME280;23841;48.524;1.342;2024-01-07T03:05:44;99411.28;;;6.81;60.52
38033;BME280;23841;48.524;1.342;2024-01-07T03:08:10;99415.72;;;6.79;60.57
38033;BME280;23841;48.524;1.342;2024-01-07T03:10:35;99413.97;;;6.78;60.73
38033;BME280;23841;48.524;1.342;2024-01-07T03:13:01;99417.47;;;6.77;60.79
38033;BME280;23841;48.524;1.342;2024-01-07T03:15:26;99414.81;;;6.79;60.66
38033;BME280;23841;48.524;1.342;2024-01-07T03:17:52;99415.72;;;6.76;60.82
38033;BME280;23841;48.524;1.342;2024-01-07T03:20:17;99413.97;;;6.75;60.86
38033;BME280;23841;48.524;1.342;2024-01-07T03:22:43;99414.84;;;6.76;60.81
38033;BME280;23841;48.524;1.342;2024-01-07T03:25:08;99407.81;;;6.70;60.89
38033;BME280;23841;48.524;1.342;2024-01-07T03:27:34;99413.09;;;6.72;61.05
38033;BME280;23841;48.524;1.342;2024-01-07T03:30:01;99418.38;;;6.72;60.98
38033;BME280;23841;48.524;1.342;2024-01-07T03:32:26;99414.88;;;6.70;61.13
38033;BME280;23841;48.524;1.342;2024-01-07T03:34:53;99424.56;;;6.66;61.18
38033;BME280;23841;48.524;1.342;2024-01-07T03:37:22;99426.34;;;6.64;61.23
38033;BME280;23841;48.524;1.342;2024-01-07T03:39:48;99417.53;;;6.62;61.38
38033;BME280;23841;48.524;1.342;2024-01-07T03:42:14;99425.47;;;6.62;61.35
38033;BME280;23841;48.524;1.342;2024-01-07T03:44:40;99428.97;;;6.62;61.44
38033;BME280;23841;48.524;1.342;2024-01-07T03:47:07;99426.34;;;6.61;61.48
38033;BME280;23841;48.524;1.342;2024-01-07T03:49:36;99436.88;;;6.62;61.34
38033;BME280;23841;48.524;1.342;2024-01-07T03:52:04;99444.81;;;6.61;61.56
38033;BME280;23841;48.524;1.342;2024-01-07T03:54:31;99437.78;;;6.63;61.52
38033;BME280;23841;48.524;1.342;2024-01-07T03:56:58;99436.03;;;6.60;61.49
38033;BME280;23841;48.524;1.342;2024-01-07T03:59:24;99443.94;;;6.59;61.64
38033;BME280;23841;48.524;1.342;2024-01-07T04:01:55;99437.78;;;6.60;61.56
38033;BME280;23841;48.524;1.342;2024-01-07T04:04:21;99436.91;;;6.58;61.59
38033;BME280;23841;48.524;1.342;2024-01-07T04:06:48;99429.88;;;6.57;61.46
38033;BME280;23841;48.524;1.342;2024-01-07T04:09:14;99440.44;;;6.54;61.66
38033;BME280;23841;48.524;1.342;2024-01-07T04:11:41;99441.34;;;6.54;61.71
38033;BME280;23841;48.524;1.342;2024-01-07T04:14:09;99437.81;;;6.52;61.77
38033;BME280;23841;48.524;1.342;2024-01-07T04:16:35;99443.97;;;6.49;61.73
38033;BME280;23841;48.524;1.342;2024-01-07T04:19:01;99447.50;;;6.52;61.91
38033;BME280;23841;48.524;1.342;2024-01-07T04:21:28;99434.31;;;6.50;61.84
38033;BME280;23841;48.524;1.342;2024-01-07T04:23:54;99435.19;;;6.51;61.79
38033;BME280;23841;48.524;1.342;2024-01-07T04:26:20;99433.41;;;6.49;61.80
38033;BME280;23841;48.524;1.342;2024-01-07T04:28:45;99441.31;;;6.51;61.67
38033;BME280;23841;48.524;1.342;2024-01-07T04:31:11;99453.66;;;6.49;61.79
38033;BME280;23841;48.524;1.342;2024-01-07T04:33:39;99445.75;;;6.47;61.95
38033;BME280;23841;48.524;1.342;2024-01-07T04:36:05;99443.13;;;6.46;61.94
38033;BME280;23841;48.524;1.342;2024-01-07T04:38:31;99451.91;;;6.48;61.93
38033;BME280;23841;48.524;1.342;2024-01-07T04:40:59;99449.25;;;6.46;61.81
38033;BME280;23841;48.524;1.342;2024-01-07T04:43:26;99444.84;;;6.47;61.82
38033;BME280;23841;48.524;1.342;2024-01-07T04:45:52;99447.50;;;6.45;61.91
38033;BME280;23841;48.524;1.342;2024-01-07T04:48:19;99454.53;;;6.46;61.82
38033;BME280;23841;48.524;1.342;2024-01-07T04:50:47;99449.25;;;6.46;61.84
38033;BME280;23841;48.524;1.342;2024-01-07T04:53:14;99446.63;;;6.45;62.01
38033;BME280;23841;48.524;1.342;2024-01-07T04:55:40;99448.41;;;6.46;61.79
38033;BME280;23841;48.524;1.342;2024-01-07T04:58:06;99445.75;;;6.44;61.92
38033;BME280;23841;48.524;1.342;2024-01-07T05:00:31;99450.13;;;6.47;61.77
38033;BME280;23841;48.524;1.342;2024-01-07T05:02:57;99454.53;;;6.46;61.94
38033;BME280;23841;48.524;1.342;2024-01-07T05:05:29;99453.66;;;6.47;61.93
38033;BME280;23841;48.524;1.342;2024-01-07T05:07:55;99450.13;;;6.47;61.77
38033;BME280;23841;48.524;1.342;2024-01-07T05:10:24;99447.50;;;6.45;61.87
38033;BME280;23841;48.524;1.342;2024-01-07T05:12:50;99457.19;;;6.46;61.66
38033;BME280;23841;48.524;1.342;2024-01-07T05:15:16;99458.06;;;6.45;61.74
38033;BME280;23841;48.524;1.342;2024-01-07T05:17:42;99461.59;;;6.44;61.69
38033;BME280;23841;48.524;1.342;2024-01-07T05:20:09;99457.19;;;6.45;61.71
38033;BME280;23841;48.524;1.342;2024-01-07T05:22:41;99463.34;;;6.45;61.66
38033;BME280;23841;48.524;1.342;2024-01-07T05:25:07;99465.97;;;6.44;61.70
38033;BME280;23841;48.524;1.342;2024-01-07T05:27:34;99461.59;;;6.44;61.63
38033;BME280;23841;48.524;1.342;2024-01-07T05:30:02;99461.56;;;6.43;61.55
38033;BME280;23841;48.524;1.342;2024-01-07T05:32:28;99465.13;;;6.43;61.47
38033;BME280;23841;48.524;1.342;2024-01-07T05:34:53;99463.34;;;6.42;61.56
38033;BME280;23841;48.524;1.342;2024-01-07T05:37:19;99468.63;;;6.42;61.42
38033;BME280;23841;48.524;1.342;2024-01-07T05:39:45;99479.19;;;6.42;61.47
38033;BME280;23841;48.524;1.342;2024-01-07T05:42:13;99470.41;;;6.40;61.43
38033;BME280;23841;48.524;1.342;2024-01-07T05:44:39;99477.44;;;6.38;61.30
38033;BME280;23841;48.524;1.342;2024-01-07T05:47:06;99481.84;;;6.36;61.30
38033;BME280;23841;48.524;1.342;2024-01-07T05:49:33;99478.31;;;6.36;61.28
38033;BME280;23841;48.524;1.342;2024-01-07T05:52:00;99480.94;;;6.37;61.20
38033;BME280;23841;48.524;1.342;2024-01-07T05:54:25;99485.34;;;6.37;61.13
38033;BME280;23841;48.524;1.342;2024-01-07T05:56:51;99488.84;;;6.36;61.19
38033;BME280;23841;48.524;1.342;2024-01-07T05:59:17;99489.75;;;6.33;61.12
38033;BME280;23841;48.524;1.342;2024-01-07T06:01:43;99495.00;;;6.33;61.02
38033;BME280;23841;48.524;1.342;2024-01-07T06:04:09;99494.16;;;6.32;61.05
38033;BME280;23841;48.524;1.342;2024-01-07T06:06:37;99497.66;;;6.30;61.00
38033;BME280;23841;48.524;1.342;2024-01-07T06:09:04;99503.81;;;6.29;61.06
38033;BME280;23841;48.524;1.342;2024-01-07T06:11:30;99491.53;;;6.28;61.07
38033;BME280;23841;48.524;1.342;2024-01-07T06:13:55;99499.44;;;6.29;61.07
38033;BME280;23841;48.524;1.342;2024-01-07T06:16:21;99495.91;;;6.29;61.03
38033;BME280;23841;48.524;1.342;2024-01-07T06:18:48;99497.66;;;6.30;61.05
38033;BME280;23841;48.524;1.342;2024-01-07T06:21:14;99495.03;;;6.27;61.09
38033;BME280;23841;48.524;1.342;2024-01-07T06:23:41;99495.91;;;6.24;61.13
38033;BME280;23841;48.524;1.342;2024-01-07T06:26:07;99495.94;;;6.21;61.17
38033;BME280;23841;48.524;1.342;2024-01-07T06:28:35;99497.69;;;6.22;61.11
38033;BME280;23841;48.524;1.342;2024-01-07T06:31:05;99506.47;;;6.21;61.45
38033;BME280;23841;48.524;1.342;2024-01-07T06:33:31;99514.38;;;6.23;61.25
38033;BME280;23841;48.524;1.342;2024-01-07T06:35:56;99517.03;;;6.23;61.20
38033;BME280;23841;48.524;1.342;2024-01-07T06:38:23;99521.41;;;6.21;61.35
38033;BME280;23841;48.524;1.342;2024-01-07T06:40:51;99514.41;;;6.18;61.41
38033;BME280;23841;48.524;1.342;2024-01-07T06:43:19;99514.41;;;6.17;61.14
38033;BME280;23841;48.524;1.342;2024-01-07T06:45:45;99510.00;;;6.17;61.42
38033;BME280;23841;48.524;1.342;2024-01-07T06:48:12;99513.50;;;6.18;61.41
38033;BME280;23841;48.524;1.342;2024-01-07T06:50:40;99513.50;;;6.18;61.21
38033;BME280;23841;48.524;1.342;2024-01-07T06:53:05;99515.28;;;6.14;61.46
38033;BME280;23841;48.524;1.342;2024-01-07T06:55:34;99517.91;;;6.11;61.53
38033;BME280;23841;48.524;1.342;2024-01-07T06:57:59;99517.03;;;6.09;61.59
38033;BME280;23841;48.524;1.342;2024-01-07T07:00:25;99529.34;;;6.10;61.44
38033;BME280;23841;48.524;1.342;2024-01-07T07:02:52;99528.44;;;6.11;61.62
38033;BME280;23841;48.524;1.342;2024-01-07T07:05:19;99535.50;;;6.12;61.64
38033;BME280;23841;48.524;1.342;2024-01-07T07:07:45;99539.00;;;6.09;61.67
38033;BME280;23841;48.524;1.342;2024-01-07T07:10:11;99531.09;;;6.08;61.75
38033;BME280;23841;48.524;1.342;2024-01-07T07:12:37;99539.91;;;6.08;61.71
38033;BME280;23841;48.524;1.342;2024-01-07T07:15:03;99540.78;;;6.07;61.80
38033;BME280;23841;48.524;1.342;2024-01-07T07:17:29;99539.00;;;6.06;61.75
38033;BME280;23841;48.524;1.342;2024-01-07T07:19:58;99539.00;;;6.05;61.70
38033;BME280;23841;48.524;1.342;2024-01-07T07:22:29;99545.16;;;6.05;61.63
38033;BME280;23841;48.524;1.342;2024-01-07T07:24:54;99553.06;;;6.05;61.94
38033;BME280;23841;48.524;1.342;2024-01-07T07:27:21;99549.56;;;6.03;61.79
38033;BME280;23841;48.524;1.342;2024-01-07T07:29:49;99558.34;;;6.07;61.87
38033;BME280;23841;48.524;1.342;2024-01-07T07:32:16;99553.06;;;6.07;61.83
38033;BME280;23841;48.524;1.342;2024-01-07T07:34:46;99556.59;;;6.04;61.90
38033;BME280;23841;48.524;1.342;2024-01-07T07:37:14;99553.06;;;6.01;61.91
38033;BME280;23841;48.524;1.342;2024-01-07T07:39:41;99561.81;;;5.95;62.26
38033;BME280;23841;48.524;1.342;2024-01-07T07:42:08;99562.69;;;5.97;62.16
38033;BME280;23841;48.524;1.342;2024-01-07T07:44:37;99554.78;;;5.97;62.20
38033;BME280;23841;48.524;1.342;2024-01-07T07:47:04;99554.78;;;5.97;62.29
38033;BME280;23841;48.524;1.342;2024-01-07T07:49:31;99565.31;;;5.97;62.05
38033;BME280;23841;48.524;1.342;2024-01-07T07:51:58;99568.03;;;5.98;62.16
38033;BME280;23841;48.524;1.342;2024-01-07T07:54:24;99557.47;;;5.98;62.18
38033;BME280;23841;48.524;1.342;2024-01-07T07:56:54;99566.25;;;5.99;62.14
38033;BME280;23841;48.524;1.342;2024-01-07T07:59:22;99568.88;;;5.96;62.17
38033;BME280;23841;48.524;1.342;2024-01-07T08:01:50;99568.03;;;5.98;62.42
38033;BME280;23841;48.524;1.342;2024-01-07T08:04:16;99566.22;;;5.94;62.51
38033;BME280;23841;48.524;1.342;2024-01-07T08:06:44;99572.38;;;5.92;62.63
38033;BME280;23841;48.524;1.342;2024-01-07T08:09:10;99568.88;;;5.93;62.70
38033;BME280;23841;48.524;1.342;2024-01-07T08:11:38;99574.13;;;5.90;62.60
38033;BME280;23841;48.524;1.342;2024-01-07T08:14:04;99581.16;;;5.88;62.92
38033;BME280;23841;48.524;1.342;2024-01-07T08:16:32;99568.84;;;5.88;63.01
38033;BME280;23841;48.524;1.342;2024-01-07T08:18:58;99580.28;;;5.89;62.88
38033;BME280;23841;48.524;1.342;2024-01-07T08:21:31;99566.19;;;5.88;62.87
38033;BME280;23841;48.524;1.342;2024-01-07T08:24:00;99576.75;;;5.90;62.97
38033;BME280;23841;48.524;1.342;2024-01-07T08:26:27;99574.13;;;5.88;63.09
38033;BME280;23841;48.524;1.342;2024-01-07T08:28:57;99581.16;;;5.88;63.01
38033;BME280;23841;48.524;1.342;2024-01-07T08:31:23;99582.03;;;5.82;63.22
38033;BME280;23841;48.524;1.342;2024-01-07T08:33:52;99584.66;;;5.82;63.22
38033;BME280;23841;48.524;1.342;2024-01-07T08:36:18;99588.16;;;5.86;63.36
38033;BME280;23841;48.524;1.342;2024-01-07T08:38:44;99600.47;;;5.82;63.22
38033;BME280;23841;48.524;1.342;2024-01-07T08:41:11;99595.19;;;5.77;63.73
38033;BME280;23841;48.524;1.342;2024-01-07T08:43:38;99609.25;;;5.79;63.67
38033;BME280;23841;48.524;1.342;2024-01-07T08:46:04;99606.63;;;5.79;63.84
38033;BME280;23841;48.524;1.342;2024-01-07T08:48:30;99609.25;;;5.76;63.80
38033;BME280;23841;48.524;1.342;2024-01-07T08:50:56;99607.50;;;5.78;63.66
38033;BME280;23841;48.524;1.342;2024-01-07T08:53:21;99616.25;;;5.77;63.79
38033;BME280;23841;48.524;1.342;2024-01-07T08:55:49;99610.13;;;5.77;63.85
38033;BME280;23841;48.524;1.342;2024-01-07T08:58:16;99613.63;;;5.70;64.00
38033;BME280;23841;48.524;1.342;2024-01-07T09:00:43;99607.50;;;5.74;64.11
38033;BME280;23841;48.524;1.342;2024-01-07T09:03:10;99608.34;;;5.74;63.72
38033;BME280;23841;48.524;1.342;2024-01-07T09:05:37;99598.69;;;5.73;64.09
38033;BME280;23841;48.524;1.342;2024-01-07T09:08:03;99606.63;;;5.75;64.10
38033;BME280;23841;48.524;1.342;2024-01-07T09:10:29;99613.63;;;5.74;63.99
38033;BME280;23841;48.524;1.342;2024-01-07T09:12:57;99612.75;;;5.74;64.38
38033;BME280;23841;48.524;1.342;2024-01-07T09:15:25;99619.78;;;5.73;64.46
38033;BME280;23841;48.524;1.342;2024-01-07T09:17:54;99605.72;;;5.71;64.28
38033;BME280;23841;48.524;1.342;2024-01-07T09:20:19;99611.00;;;5.71;64.41
38033;BME280;23841;48.524;1.342;2024-01-07T09:22:45;99616.25;;;5.71;64.41
38033;BME280;23841;48.524;1.342;2024-01-07T09:25:11;99611.84;;;5.66;64.30
38033;BME280;23841;48.524;1.342;2024-01-07T09:27:37;99618.00;;;5.69;64.46
38033;BME280;23841;48.524;1.342;2024-01-07T09:30:06;99618.91;;;5.67;64.21
38033;BME280;23841;48.524;1.342;2024-01-07T09:32:32;99616.25;;;5.65;64.64
38033;BME280;23841;48.524;1.342;2024-01-07T09:35:02;99617.13;;;5.67;64.82
38033;BME280;23841;48.524;1.342;2024-01-07T09:37:31;99625.03;;;5.67;64.56
38033;BME280;23841;48.524;1.342;2024-01-07T09:39:57;99622.41;;;5.66;64.58
38033;BME280;23841;48.524;1.342;2024-01-07T09:42:23;99618.91;;;5.67;64.68
38033;BME280;23841;48.524;1.342;2024-01-07T09:44:50;99609.22;;;5.67;64.83
38033;BME280;23841;48.524;1.342;2024-01-07T09:47:17;99614.50;;;5.67;64.54
38033;BME280;23841;48.524;1.342;2024-01-07T09:49:43;99611.00;;;5.65;64.66
38033;BME280;23841;48.524;1.342;2024-01-07T09:52:14;99603.94;;;5.67;64.69
38033;BME280;23841;48.524;1.342;2024-01-07T09:54:47;99620.66;;;5.71;64.49
38033;BME280;23841;48.524;1.342;2024-01-07T09:57:19;99622.41;;;5.70;64.58
38033;BME280;23841;48.524;1.342;2024-01-07T09:59:48;99631.22;;;5.71;64.49
38033;BME280;23841;48.524;1.342;2024-01-07T10:02:17;99629.44;;;5.70;64.59
38033;BME280;23841;48.524;1.342;2024-01-07T10:04:45;99626.81;;;5.68;64.75
38033;BME280;23841;48.524;1.342;2024-01-07T10:07:13;99618.91;;;5.65;64.80
38033;BME280;23841;48.524;1.342;2024-01-07T10:09:43;99631.16;;;5.61;64.83
38033;BME280;23841;48.524;1.342;2024-01-07T10:12:09;99637.34;;;5.65;65.08
38033;BME280;23841;48.524;1.342;2024-01-07T10:14:35;99637.31;;;5.62;64.98
38033;BME280;23841;48.524;1.342;2024-01-07T10:17:02;99644.31;;;5.55;65.30
38033;BME280;23841;48.524;1.342;2024-01-07T10:19:30;99631.13;;;5.54;65.58
38033;BME280;23841;48.524;1.342;2024-01-07T10:22:04;99640.81;;;5.58;65.60
38033;BME280;23841;48.524;1.342;2024-01-07T10:24:40;99632.94;;;5.61;65.42
38033;BME280;23841;48.524;1.342;2024-01-07T10:27:07;99637.28;;;5.53;65.82
38033;BME280;23841;48.524;1.342;2024-01-07T10:29:33;99640.78;;;5.50;66.02
38033;BME280;23841;48.524;1.342;2024-01-07T10:32:01;99639.94;;;5.56;65.72
38033;BME280;23841;48.524;1.342;2024-01-07T10:34:32;99639.94;;;5.54;66.11
38033;BME280;23841;48.524;1.342;2024-01-07T10:37:04;99642.56;;;5.54;66.00
38033;BME280;23841;48.524;1.342;2024-01-07T10:39:34;99646.06;;;5.49;66.27
38033;BME280;23841;48.524;1.342;2024-01-07T10:42:01;99642.53;;;5.48;66.58
38033;BME280;23841;48.524;1.342;2024-01-07T10:44:31;99646.03;;;5.45;66.76
38033;BME280;23841;48.524;1.342;2024-01-07T10:46:58;99654.81;;;5.44;66.63
38033;BME280;23841;48.524;1.342;2024-01-07T10:49:27;99641.66;;;5.44;66.57
38033;BME280;23841;48.524;1.342;2024-01-07T10:52:07;99643.44;;;5.52;66.15
38033;BME280;23841;48.524;1.342;2024-01-07T10:55:08;99649.56;;;5.51;66.51
38033;BME280;23841;48.524;1.342;2024-01-07T10:57:49;99639.03;;;5.47;66.34
38033;BME280;23841;48.524;1.342;2024-01-07T11:00:26;99647.84;;;5.51;66.28
38033;BME280;23841;48.524;1.342;2024-01-07T11:03:02;99635.53;;;5.49;66.30
38033;BME280;23841;48.524;1.342;2024-01-07T11:05:54;99638.16;;;5.49;66.25
38033;BME280;23841;48.524;1.342;2024-01-07T11:08:26;99638.16;;;5.47;66.43
38033;BME280;23841;48.524;1.342;2024-01-07T11:11:29;99639.03;;;5.47;66.26
38033;BME280;23841;48.524;1.342;2024-01-07T11:13:55;99642.56;;;5.53;66.12
38033;BME280;23841;48.524;1.342;2024-01-07T11:16:42;99646.06;;;5.58;65.93
38033;BME280;23841;48.524;1.342;2024-01-07T11:19:13;99640.81;;;5.58;65.93
38033;BME280;23841;48.524;1.342;2024-01-07T11:21:39;99646.06;;;5.59;65.71
38033;BME280;23841;48.524;1.342;2024-01-07T11:24:06;99638.19;;;5.59;65.58
38033;BME280;23841;48.524;1.342;2024-01-07T11:26:34;99646.13;;;5.61;65.56
38033;BME280;23841;48.524;1.342;2024-01-07T11:29:01;99639.94;;;5.57;65.84
38033;BME280;23841;48.524;1.342;2024-01-07T11:31:43;99636.44;;;5.58;65.45
38033;BME280;23841;48.524;1.342;2024-01-07T11:34:09;99638.16;;;5.55;65.70
38033;BME280;23841;48.524;1.342;2024-01-07T11:36:36;99634.66;;;5.53;66.15
38033;BME280;23841;48.524;1.342;2024-01-07T11:39:04;99628.47;;;5.47;66.48
38033;BME280;23841;48.524;1.342;2024-01-07T11:41:36;99633.75;;;5.52;65.96
38033;BME280;23841;48.524;1.342;2024-01-07T11:44:04;99630.25;;;5.52;66.07
38033;BME280;23841;48.524;1.342;2024-01-07T11:46:32;99632.91;;;5.56;65.86
38033;BME280;23841;48.524;1.342;2024-01-07T11:48:59;99625.84;;;5.49;66.31
38033;BME280;23841;48.524;1.342;2024-01-07T11:51:29;99626.72;;;5.46;66.17
38033;BME280;23841;48.524;1.342;2024-01-07T11:54:02;99629.34;;;5.48;66.27
38033;BME280;23841;48.524;1.342;2024-01-07T11:56:30;99626.72;;;5.48;66.06
38033;BME280;23841;48.524;1.342;2024-01-07T11:58:56;99634.63;;;5.48;66.17
38033;BME280;23841;48.524;1.342;2024-01-07T12:01:23;99628.50;;;5.51;65.93
38033;BME280;23841;48.524;1.342;2024-01-07T12:03:51;99635.53;;;5.49;66.15
38033;BME280;23841;48.524;1.342;2024-01-07T12:06:21;99633.75;;;5.51;65.89
38033;BME280;23841;48.524;1.342;2024-01-07T12:08:46;99644.28;;;5.51;65.81
38033;BME280;23841;48.524;1.342;2024-01-07T12:11:14;99625.84;;;5.52;65.90
38033;BME280;23841;48.524;1.342;2024-01-07T12:13:41;99639.94;;;5.51;66.09
38033;BME280;23841;48.524;1.342;2024-01-07T12:16:08;99630.25;;;5.52;65.99
38033;BME280;23841;48.524;1.342;2024-01-07T12:18:36;99630.25;;;5.52;66.33
38033;BME280;23841;48.524;1.342;2024-01-07T12:21:02;99632.91;;;5.55;65.85
38033;BME280;23841;48.524;1.342;2024-01-07T12:23:28;99637.28;;;5.53;66.15
38033;BME280;23841;48.524;1.342;2024-01-07T12:25:54;99634.66;;;5.54;65.83
38033;BME280;23841;48.524;1.342;2024-01-07T12:28:21;99624.13;;;5.54;65.93
38033;BME280;23841;48.524;1.342;2024-01-07T12:30:51;99626.75;;;5.56;65.95
38033;BME280;23841;48.524;1.342;2024-01-07T12:33:19;99617.97;;;5.57;65.71
38033;BME280;23841;48.524;1.342;2024-01-07T12:35:47;99619.72;;;5.58;65.93
38033;BME280;23841;48.524;1.342;2024-01-07T12:38:12;99624.13;;;5.54;66.11
38033;BME280;23841;48.524;1.342;2024-01-07T12:40:38;99623.22;;;5.54;66.21
38033;BME280;23841;48.524;1.342;2024-01-07T12:43:05;99617.94;;;5.54;66.08
38033;BME280;23841;48.524;1.342;2024-01-07T12:45:32;99624.13;;;5.56;66.07
38033;BME280;23841;48.524;1.342;2024-01-07T12:47:58;99618.84;;;5.56;66.22
38033;BME280;23841;48.524;1.342;2024-01-07T12:50:27;99607.41;;;5.54;66.39
38033;BME280;23841;48.524;1.342;2024-01-07T12:52:55;99610.03;;;5.55;66.55
38033;BME280;23841;48.524;1.342;2024-01-07T12:55:22;99607.41;;;5.52;66.35
38033;BME280;23841;48.524;1.342;2024-01-07T12:57:48;99614.44;;;5.52;66.64
38033;BME280;23841;48.524;1.342;2024-01-07T13:00:15;99607.41;;;5.51;66.83
38033;BME280;23841;48.524;1.342;2024-01-07T13:02:40;99612.69;;;5.51;66.69
38033;BME280;23841;48.524;1.342;2024-01-07T13:05:06;99608.28;;;5.50;66.70
38033;BME280;23841;48.524;1.342;2024-01-07T13:07:35;99599.50;;;5.51;66.67
38033;BME280;23841;48.524;1.342;2024-01-07T13:10:01;99603.91;;;5.52;66.65